sensor_id;sensor_type;location;lat;lon;timestamp;temperature;humidity
20376;DHT22;10347;51.828;6.466;2023-10-13T00:01:56;19.10;99.90
20376;DHT22;10347;51.828;6.466;2023-10-13T00:04:28;19.10;99.90
20376;DHT22;10347;51.828;6.466;2023-10-13T00:06:57;19.10;99.90
20376;DHT22;10347;51.828;6.466;2023-10-13T00:09:23;19.20;99.90
20376;DHT22;10347;51.828;6.466;2023-10-13T00:11:51;19.10;99.90
20376;DHT22;10347;51.828;6.466;2023-10-13T00:14:18;19.10;99.90
20376;DHT22;10347;51.828;6.466;2023-10-13T00:16:44;19.10;99.90
20376;DHT22;10347;51.828;6.466;2023-10-13T00:19:38;19.10;99.90
20376;DHT22;10347;51.828;6.466;2023-10-13T00:22:10;19.10;99.90
20376;DHT22;10347;51.828;6.466;2023-10-13T00:24:37;19.10;99.90
20376;DHT22;10347;51.828;6.466;2023-10-13T00:27:15;19.10;99.90
20376;DHT22;10347;51.828;6.466;2023-10-13T00:30:10;19.10;99.90
20376;DHT22;10347;51.828;6.466;2023-10-13T00:32:49;19.10;99.90
20376;DHT22;10347;51.828;6.466;2023-10-13T00:35:26;19.10;99.90
20376;DHT22;10347;51.828;6.466;2023-10-13T00:38:01;19.10;99.90
20376;DHT22;10347;51.828;6.466;2023-10-13T00:40:31;19.10;99.90
20376;DHT22;10347;51.828;6.466;2023-10-13T00:42:57;19.20;99.90
20376;DHT22;10347;51.828;6.466;2023-10-13T00:45:46;19.20;99.90
20376;DHT22;10347;51.828;6.466;2023-10-13T00:48:29;19.20;99.90
20376;DHT22;10347;51.828;6.466;2023-10-13T00:51:03;19.20;99.90
20376;DHT22;10347;51.828;6.466;2023-10-13T00:53:36;19.10;99.90
20376;DHT22;10347;51.828;6.466;2023-10-13T00:56:06;19.20;99.90
20376;DHT22;10347;51.828;6.466;2023-10-13T00:58:44;19.20;99.90
20376;DHT22;10347;51.828;6.466;2023-10-13T01:01:12;19.20;99.90
20376;DHT22;10347;51.828;6.466;2023-10-13T01:03:50;19.10;99.90
20376;DHT22;10347;51.828;6.466;2023-10-13T01:06:21;19.20;99.90
20376;DHT22;10347;51.828;6.466;2023-10-13T01:09:03;19.20;99.90
20376;DHT22;10347;51.828;6.466;2023-10-13T01:11:47;19.20;99.90
20376;DHT22;10347;51.828;6.466;2023-10-13T01:14:20;19.20;99.90
20376;DHT22;10347;51.828;6.466;2023-10-13T01:16:48;19.20;99.90
20376;DHT22;10347;51.828;6.466;2023-10-13T01:19:18;19.20;99.90
20376;DHT22;10347;51.828;6.466;2023-10-13T01:21:47;19.20;99.90
20376;DHT22;10347;51.828;6.466;2023-10-13T01:24:13;19.20;99.90
20376;DHT22;10347;51.828;6.466;2023-10-13T01:26:44;19.20;99.90
20376;DHT22;10347;51.828;6.466;2023-10-13T01:29:10;19.20;99.90
20376;DHT22;10347;51.828;6.466;2023-10-13T01:31:44;19.20;99.90
20376;DHT22;10347;51.828;6.466;2023-10-13T01:34:20;19.20;99.90
20376;DHT22;10347;51.828;6.466;2023-10-13T01:36:53;19.20;99.90
20376;DHT22;10347;51.828;6.466;2023-10-13T01:39:24;19.20;99.90
20376;DHT22;10347;51.828;6.466;2023-10-13T01:41:54;19.20;99.90
20376;DHT22;10347;51.828;6.466;2023-10-13T01:44:27;19.20;99.90
20376;DHT22;10347;51.828;6.466;2023-10-13T01:46:59;19.20;99.90
20376;DHT22;10347;51.828;6.466;2023-10-13T01:49:28;19.20;99.90
20376;DHT22;10347;51.828;6.466;2023-10-13T01:51:53;19.20;99.90
20376;DHT22;10347;51.828;6.466;2023-10-13T01:54:19;19.20;99.90
20376;DHT22;10347;51.828;6.466;2023-10-13T01:56:46;19.20;99.90
20376;DHT22;10347;51.828;6.466;2023-10-13T01:59:14;19.30;99.90
20376;DHT22;10347;51.828;6.466;2023-10-13T02:01:41;19.30;99.90
20376;DHT22;10347;51.828;6.466;2023-10-13T02:04:07;19.20;99.90
20376;DHT22;10347;51.828;6.466;2023-10-13T02:06:35;19.20;99.90
20376;DHT22;10347;51.828;6.466;2023-10-13T02:09:03;19.30;99.90
20376;DHT22;10347;51.828;6.466;2023-10-13T02:11:45;19.30;99.90
20376;DHT22;10347;51.828;6.466;2023-10-13T02:14:12;19.20;99.90
20376;DHT22;10347;51.828;6.466;2023-10-13T02:16:38;19.20;99.90
20376;DHT22;10347;51.828;6.466;2023-10-13T02:19:04;19.20;99.90
20376;DHT22;10347;51.828;6.466;2023-10-13T02:21:33;19.20;99.90
20376;DHT22;10347;51.828;6.466;2023-10-13T02:24:08;19.30;99.90
20376;DHT22;10347;51.828;6.466;2023-10-13T02:26:40;19.30;99.90
20376;DHT22;10347;51.828;6.466;2023-10-13T02:29:06;19.30;99.90
20376;DHT22;10347;51.828;6.466;2023-10-13T02:31:43;19.30;99.90
20376;DHT22;10347;51.828;6.466;2023-10-13T02:34:19;19.30;99.90
20376;DHT22;10347;51.828;6.466;2023-10-13T02:36:45;19.20;99.90
20376;DHT22;10347;51.828;6.466;2023-10-13T02:39:17;19.30;99.90
20376;DHT22;10347;51.828;6.466;2023-10-13T02:41:49;19.30;99.90
20376;DHT22;10347;51.828;6.466;2023-10-13T02:44:15;19.30;99.90
20376;DHT22;10347;51.828;6.466;2023-10-13T02:46:56;19.30;99.90
20376;DHT22;10347;51.828;6.466;2023-10-13T02:49:24;19.30;99.90
20376;DHT22;10347;51.828;6.466;2023-10-13T02:51:51;19.30;99.90
20376;DHT22;10347;51.828;6.466;2023-10-13T02:54:18;19.30;99.90
20376;DHT22;10347;51.828;6.466;2023-10-13T02:56:45;19.30;99.90
20376;DHT22;10347;51.828;6.466;2023-10-13T02:59:24;19.30;99.90
20376;DHT22;10347;51.828;6.466;2023-10-13T03:02:08;19.30;99.90
20376;DHT22;10347;51.828;6.466;2023-10-13T03:04:50;19.30;99.90
20376;DHT22;10347;51.828;6.466;2023-10-13T03:07:15;19.30;99.90
20376;DHT22;10347;51.828;6.466;2023-10-13T03:09:47;19.30;99.90
20376;DHT22;10347;51.828;6.466;2023-10-13T03:12:17;19.30;99.90
20376;DHT22;10347;51.828;6.466;2023-10-13T03:14:42;19.30;99.90
20376;DHT22;10347;51.828;6.466;2023-10-13T03:17:15;19.30;99.90
20376;DHT22;10347;51.828;6.466;2023-10-13T03:19:46;19.30;99.90
20376;DHT22;10347;51.828;6.466;2023-10-13T03:22:15;19.30;99.90
20376;DHT22;10347;51.828;6.466;2023-10-13T03:24:42;19.30;99.90
20376;DHT22;10347;51.828;6.466;2023-10-13T03:27:16;19.30;99.90
20376;DHT22;10347;51.828;6.466;2023-10-13T03:29:43;19.30;99.90
20376;DHT22;10347;51.828;6.466;2023-10-13T03:32:18;19.30;99.90
20376;DHT22;10347;51.828;6.466;2023-10-13T03:34:44;19.30;99.90
20376;DHT22;10347;51.828;6.466;2023-10-13T03:37:26;19.30;99.90
20376;DHT22;10347;51.828;6.466;2023-10-13T03:42:55;19.30;99.90
20376;DHT22;10347;51.828;6.466;2023-10-13T03:45:26;19.30;99.90
20376;DHT22;10347;51.828;6.466;2023-10-13T03:47:52;19.30;99.90
20376;DHT22;10347;51.828;6.466;2023-10-13T03:50:19;19.30;99.90
20376;DHT22;10347;51.828;6.466;2023-10-13T03:52:58;19.30;99.90
20376;DHT22;10347;51.828;6.466;2023-10-13T03:55:24;19.30;99.90
20376;DHT22;10347;51.828;6.466;2023-10-13T03:57:52;19.30;99.90
20376;DHT22;10347;51.828;6.466;2023-10-13T04:00:24;19.30;99.90
20376;DHT22;10347;51.828;6.466;2023-10-13T04:02:54;19.20;99.90
20376;DHT22;10347;51.828;6.466;2023-10-13T04:05:40;19.20;99.90
20376;DHT22;10347;51.828;6.466;2023-10-13T04:08:24;19.20;99.90
20376;DHT22;10347;51.828;6.466;2023-10-13T04:10:53;19.30;99.90
20376;DHT22;10347;51.828;6.466;2023-10-13T04:13:19;19.20;99.90
20376;DHT22;10347;51.828;6.466;2023-10-13T04:16:04;19.20;99.90
20376;DHT22;10347;51.828;6.466;2023-10-13T04:18:42;19.20;99.90
20376;DHT22;10347;51.828;6.466;2023-10-13T04:21:21;19.30;99.90
20376;DHT22;10347;51.828;6.466;2023-10-13T04:26:49;19.30;99.90
20376;DHT22;10347;51.828;6.466;2023-10-13T04:29:33;19.30;99.90
20376;DHT22;10347;51.828;6.466;2023-10-13T04:32:36;19.30;99.90
20376;DHT22;10347;51.828;6.466;2023-10-13T04:35:07;19.30;99.90
20376;DHT22;10347;51.828;6.466;2023-10-13T04:37:38;19.30;99.90
20376;DHT22;10347;51.828;6.466;2023-10-13T04:40:23;19.30;99.90
20376;DHT22;10347;51.828;6.466;2023-10-13T04:42:54;19.40;99.90
20376;DHT22;10347;51.828;6.466;2023-10-13T04:45:22;19.30;99.90
20376;DHT22;10347;51.828;6.466;2023-10-13T04:48:00;19.40;99.90
20376;DHT22;10347;51.828;6.466;2023-10-13T04:51:00;19.30;99.90
20376;DHT22;10347;51.828;6.466;2023-10-13T04:53:46;19.30;99.90
20376;DHT22;10347;51.828;6.466;2023-10-13T04:56:36;19.40;99.90
20376;DHT22;10347;51.828;6.466;2023-10-13T04:59:07;19.40;99.90
20376;DHT22;10347;51.828;6.466;2023-10-13T05:01:52;19.30;99.90
20376;DHT22;10347;51.828;6.466;2023-10-13T05:04:36;19.30;99.90
20376;DHT22;10347;51.828;6.466;2023-10-13T05:07:24;19.30;99.90
20376;DHT22;10347;51.828;6.466;2023-10-13T05:10:09;19.40;99.90
20376;DHT22;10347;51.828;6.466;2023-10-13T05:12:53;19.30;99.90
20376;DHT22;10347;51.828;6.466;2023-10-13T05:15:47;19.30;99.90
20376;DHT22;10347;51.828;6.466;2023-10-13T05:18:31;19.30;99.90
20376;DHT22;10347;51.828;6.466;2023-10-13T05:21:16;19.30;99.90
20376;DHT22;10347;51.828;6.466;2023-10-13T05:24:00;19.30;99.90
20376;DHT22;10347;51.828;6.466;2023-10-13T05:26:44;19.30;99.90
20376;DHT22;10347;51.828;6.466;2023-10-13T05:29:28;19.30;99.90
20376;DHT22;10347;51.828;6.466;2023-10-13T05:32:12;19.30;99.90
20376;DHT22;10347;51.828;6.466;2023-10-13T05:34:57;19.30;99.90
20376;DHT22;10347;51.828;6.466;2023-10-13T05:37:41;19.30;99.90
20376;DHT22;10347;51.828;6.466;2023-10-13T05:40:25;19.40;99.90
20376;DHT22;10347;51.828;6.466;2023-10-13T05:43:10;19.40;99.90
20376;DHT22;10347;51.828;6.466;2023-10-13T05:46:00;19.30;99.90
20376;DHT22;10347;51.828;6.466;2023-10-13T05:48:44;19.40;99.90
20376;DHT22;10347;51.828;6.466;2023-10-13T05:51:26;19.40;99.90
20376;DHT22;10347;51.828;6.466;2023-10-13T05:53:58;19.40;99.90
20376;DHT22;10347;51.828;6.466;2023-10-13T05:56:42;19.40;99.90
20376;DHT22;10347;51.828;6.466;2023-10-13T05:59:27;19.40;99.90
20376;DHT22;10347;51.828;6.466;2023-10-13T06:02:12;19.50;99.90
20376;DHT22;10347;51.828;6.466;2023-10-13T06:04:57;19.50;99.90
20376;DHT22;10347;51.828;6.466;2023-10-13T06:07:41;19.50;99.90
20376;DHT22;10347;51.828;6.466;2023-10-13T06:10:25;19.50;99.90
20376;DHT22;10347;51.828;6.466;2023-10-13T06:13:09;19.50;99.90
20376;DHT22;10347;51.828;6.466;2023-10-13T06:15:53;19.50;99.90
20376;DHT22;10347;51.828;6.466;2023-10-13T06:18:38;19.50;99.90
20376;DHT22;10347;51.828;6.466;2023-10-13T06:21:22;19.50;99.90
20376;DHT22;10347;51.828;6.466;2023-10-13T06:24:07;19.60;99.90
20376;DHT22;10347;51.828;6.466;2023-10-13T06:26:51;19.60;99.90
20376;DHT22;10347;51.828;6.466;2023-10-13T06:29:36;19.60;99.90
20376;DHT22;10347;51.828;6.466;2023-10-13T06:32:01;19.60;99.90
20376;DHT22;10347;51.828;6.466;2023-10-13T06:34:27;19.60;99.90
20376;DHT22;10347;51.828;6.466;2023-10-13T06:37:25;19.60;99.90
20376;DHT22;10347;51.828;6.466;2023-10-13T06:39:53;19.60;99.90
20376;DHT22;10347;51.828;6.466;2023-10-13T06:42:39;19.60;99.90
20376;DHT22;10347;51.828;6.466;2023-10-13T06:45:08;19.70;99.90
20376;DHT22;10347;51.828;6.466;2023-10-13T06:47:35;19.70;99.90
20376;DHT22;10347;51.828;6.466;2023-10-13T06:50:08;19.60;99.90
20376;DHT22;10347;51.828;6.466;2023-10-13T06:52:48;19.70;99.90
20376;DHT22;10347;51.828;6.466;2023-10-13T06:55:14;19.70;99.90
20376;DHT22;10347;51.828;6.466;2023-10-13T06:57:45;19.70;99.90
20376;DHT22;10347;51.828;6.466;2023-10-13T07:00:12;19.70;99.90
20376;DHT22;10347;51.828;6.466;2023-10-13T07:02:57;19.70;99.90
20376;DHT22;10347;51.828;6.466;2023-10-13T07:05:34;19.80;99.90
20376;DHT22;10347;51.828;6.466;2023-10-13T07:08:00;19.80;99.90
20376;DHT22;10347;51.828;6.466;2023-10-13T07:10:28;19.80;99.90
20376;DHT22;10347;51.828;6.466;2023-10-13T07:12:55;19.80;99.90
20376;DHT22;10347;51.828;6.466;2023-10-13T07:15:25;19.80;99.90
20376;DHT22;10347;51.828;6.466;2023-10-13T07:17:54;19.80;99.90
20376;DHT22;10347;51.828;6.466;2023-10-13T07:20:25;19.80;99.90
20376;DHT22;10347;51.828;6.466;2023-10-13T07:22:53;19.90;99.90
20376;DHT22;10347;51.828;6.466;2023-10-13T07:25:29;19.90;99.90
20376;DHT22;10347;51.828;6.466;2023-10-13T07:28:01;19.90;99.90
20376;DHT22;10347;51.828;6.466;2023-10-13T07:30:29;19.90;99.90
20376;DHT22;10347;51.828;6.466;2023-10-13T07:32:56;19.90;99.90
20376;DHT22;10347;51.828;6.466;2023-10-13T07:35:25;19.90;99.90
20376;DHT22;10347;51.828;6.466;2023-10-13T07:37:51;19.90;99.90
20376;DHT22;10347;51.828;6.466;2023-10-13T07:40:21;19.90;99.90
20376;DHT22;10347;51.828;6.466;2023-10-13T07:42:50;19.90;99.90
20376;DHT22;10347;51.828;6.466;2023-10-13T07:45:16;19.90;99.90
20376;DHT22;10347;51.828;6.466;2023-10-13T07:47:50;19.90;99.90
20376;DHT22;10347;51.828;6.466;2023-10-13T07:50:16;19.90;99.90
20376;DHT22;10347;51.828;6.466;2023-10-13T07:52:49;20.00;99.90
20376;DHT22;10347;51.828;6.466;2023-10-13T07:55:31;19.90;99.90
20376;DHT22;10347;51.828;6.466;2023-10-13T07:57:59;20.00;99.90
20376;DHT22;10347;51.828;6.466;2023-10-13T08:00:26;20.00;99.90
20376;DHT22;10347;51.828;6.466;2023-10-13T08:03:03;20.00;99.90
20376;DHT22;10347;51.828;6.466;2023-10-13T08:05:45;20.00;99.90
20376;DHT22;10347;51.828;6.466;2023-10-13T08:08:29;20.00;99.90
20376;DHT22;10347;51.828;6.466;2023-10-13T08:11:21;20.00;99.90
20376;DHT22;10347;51.828;6.466;2023-10-13T08:14:00;20.00;99.90
20376;DHT22;10347;51.828;6.466;2023-10-13T08:16:36;20.00;99.90
20376;DHT22;10347;51.828;6.466;2023-10-13T08:19:15;20.00;99.90
20376;DHT22;10347;51.828;6.466;2023-10-13T08:21:45;20.00;99.90
20376;DHT22;10347;51.828;6.466;2023-10-13T08:24:16;20.00;99.90
20376;DHT22;10347;51.828;6.466;2023-10-13T08:26:50;20.00;99.90
20376;DHT22;10347;51.828;6.466;2023-10-13T08:29:34;20.00;99.90
20376;DHT22;10347;51.828;6.466;2023-10-13T08:32:18;20.10;99.90
20376;DHT22;10347;51.828;6.466;2023-10-13T08:34:53;20.10;99.90
20376;DHT22;10347;51.828;6.466;2023-10-13T08:37:20;20.10;99.90
20376;DHT22;10347;51.828;6.466;2023-10-13T08:39:52;20.20;99.90
20376;DHT22;10347;51.828;6.466;2023-10-13T08:45:18;20.20;99.90
20376;DHT22;10347;51.828;6.466;2023-10-13T08:47:57;20.20;99.90
20376;DHT22;10347;51.828;6.466;2023-10-13T08:50:41;20.30;99.90
20376;DHT22;10347;51.828;6.466;2023-10-13T08:53:20;20.20;99.90
20376;DHT22;10347;51.828;6.466;2023-10-13T08:55:52;20.30;99.90
20376;DHT22;10347;51.828;6.466;2023-10-13T08:58:37;20.30;99.90
20376;DHT22;10347;51.828;6.466;2023-10-13T09:04:18;20.40;99.90
20376;DHT22;10347;51.828;6.466;2023-10-13T09:06:51;20.40;99.90
20376;DHT22;10347;51.828;6.466;2023-10-13T09:09:29;20.50;99.90
20376;DHT22;10347;51.828;6.466;2023-10-13T09:12:18;20.50;99.90
20376;DHT22;10347;51.828;6.466;2023-10-13T09:14:52;20.60;99.90
20376;DHT22;10347;51.828;6.466;2023-10-13T09:17:25;20.60;99.90
20376;DHT22;10347;51.828;6.466;2023-10-13T09:20:04;20.70;99.90
20376;DHT22;10347;51.828;6.466;2023-10-13T09:22:58;20.70;99.90
20376;DHT22;10347;51.828;6.466;2023-10-13T09:25:31;20.80;99.90
20376;DHT22;10347;51.828;6.466;2023-10-13T09:28:14;20.80;99.90
20376;DHT22;10347;51.828;6.466;2023-10-13T09:30:52;20.80;99.90
20376;DHT22;10347;51.828;6.466;2023-10-13T09:33:23;20.90;99.90
20376;DHT22;10347;51.828;6.466;2023-10-13T09:36:07;20.90;99.90
20376;DHT22;10347;51.828;6.466;2023-10-13T09:38:34;20.90;99.90
20376;DHT22;10347;51.828;6.466;2023-10-13T09:41:04;20.90;99.90
20376;DHT22;10347;51.828;6.466;2023-10-13T09:43:50;20.90;99.90
20376;DHT22;10347;51.828;6.466;2023-10-13T09:46:21;21.00;99.90
20376;DHT22;10347;51.828;6.466;2023-10-13T09:48:58;21.00;99.90
20376;DHT22;10347;51.828;6.466;2023-10-13T09:51:31;21.00;99.90
20376;DHT22;10347;51.828;6.466;2023-10-13T09:56:37;21.10;99.90
20376;DHT22;10347;51.828;6.466;2023-10-13T09:59:21;21.10;99.90
20376;DHT22;10347;51.828;6.466;2023-10-13T10:01:48;21.10;99.90
20376;DHT22;10347;51.828;6.466;2023-10-13T10:04:18;21.10;99.90
20376;DHT22;10347;51.828;6.466;2023-10-13T10:09:26;21.10;99.90
20376;DHT22;10347;51.828;6.466;2023-10-13T10:17:43;21.20;99.90
20376;DHT22;10347;51.828;6.466;2023-10-13T10:20:09;21.20;99.90
20376;DHT22;10347;51.828;6.466;2023-10-13T10:22:56;21.20;99.90
20376;DHT22;10347;51.828;6.466;2023-10-13T10:25:29;21.30;99.90
20376;DHT22;10347;51.828;6.466;2023-10-13T10:28:01;21.30;99.90
20376;DHT22;10347;51.828;6.466;2023-10-13T10:30:33;21.40;99.90
20376;DHT22;10347;51.828;6.466;2023-10-13T10:33:00;21.40;99.90
20376;DHT22;10347;51.828;6.466;2023-10-13T10:35:27;21.40;99.90
20376;DHT22;10347;51.828;6.466;2023-10-13T10:37:57;21.40;99.90
20376;DHT22;10347;51.828;6.466;2023-10-13T10:40:53;21.40;99.90
20376;DHT22;10347;51.828;6.466;2023-10-13T10:48:40;21.50;99.90
20376;DHT22;10347;51.828;6.466;2023-10-13T10:51:10;21.60;99.90
20376;DHT22;10347;51.828;6.466;2023-10-13T10:53:52;21.60;99.90
20376;DHT22;10347;51.828;6.466;2023-10-13T10:56:22;21.60;99.90
20376;DHT22;10347;51.828;6.466;2023-10-13T10:58:57;21.70;99.90
20376;DHT22;10347;51.828;6.466;2023-10-13T11:01:24;21.70;99.90
20376;DHT22;10347;51.828;6.466;2023-10-13T11:04:08;21.80;99.90
20376;DHT22;10347;51.828;6.466;2023-10-13T11:06:35;21.70;99.90
20376;DHT22;10347;51.828;6.466;2023-10-13T11:09:08;21.70;99.90
20376;DHT22;10347;51.828;6.466;2023-10-13T11:11:52;21.80;99.90
20376;DHT22;10347;51.828;6.466;2023-10-13T11:14:22;21.80;99.90
20376;DHT22;10347;51.828;6.466;2023-10-13T11:16:49;21.80;99.90
20376;DHT22;10347;51.828;6.466;2023-10-13T11:19:38;21.80;99.90
20376;DHT22;10347;51.828;6.466;2023-10-13T11:22:17;21.90;99.90
20376;DHT22;10347;51.828;6.466;2023-10-13T11:25:03;21.90;99.90
20376;DHT22;10347;51.828;6.466;2023-10-13T11:27:35;21.90;99.90
20376;DHT22;10347;51.828;6.466;2023-10-13T11:30:20;21.90;99.90
20376;DHT22;10347;51.828;6.466;2023-10-13T11:35:24;21.90;99.90
20376;DHT22;10347;51.828;6.466;2023-10-13T11:37:50;22.00;99.90
20376;DHT22;10347;51.828;6.466;2023-10-13T11:40:39;22.00;99.90
20376;DHT22;10347;51.828;6.466;2023-10-13T11:43:23;22.10;99.90
20376;DHT22;10347;51.828;6.466;2023-10-13T11:45:50;22.10;99.90
20376;DHT22;10347;51.828;6.466;2023-10-13T11:48:39;22.10;99.90
20376;DHT22;10347;51.828;6.466;2023-10-13T11:51:08;22.20;99.90
20376;DHT22;10347;51.828;6.466;2023-10-13T11:53:37;22.20;99.90
20376;DHT22;10347;51.828;6.466;2023-10-13T11:56:04;22.30;99.90
20376;DHT22;10347;51.828;6.466;2023-10-13T11:58:35;22.30;99.90
20376;DHT22;10347;51.828;6.466;2023-10-13T12:01:02;22.30;99.90
20376;DHT22;10347;51.828;6.466;2023-10-13T12:03:43;22.40;99.90
20376;DHT22;10347;51.828;6.466;2023-10-13T12:06:29;22.40;99.90
20376;DHT22;10347;51.828;6.466;2023-10-13T12:09:07;22.40;99.90
20376;DHT22;10347;51.828;6.466;2023-10-13T12:11:46;22.50;99.90
20376;DHT22;10347;51.828;6.466;2023-10-13T12:14:12;22.50;99.90
20376;DHT22;10347;51.828;6.466;2023-10-13T12:16:54;22.50;99.90
20376;DHT22;10347;51.828;6.466;2023-10-13T12:19:22;22.60;99.90
20376;DHT22;10347;51.828;6.466;2023-10-13T12:21:51;22.60;99.90
20376;DHT22;10347;51.828;6.466;2023-10-13T12:24:20;22.70;99.90
20376;DHT22;10347;51.828;6.466;2023-10-13T12:27:05;22.70;99.90
20376;DHT22;10347;51.828;6.466;2023-10-13T12:29:52;22.80;99.90
20376;DHT22;10347;51.828;6.466;2023-10-13T12:32:19;22.80;99.90
20376;DHT22;10347;51.828;6.466;2023-10-13T12:34:56;22.90;99.90
20376;DHT22;10347;51.828;6.466;2023-10-13T12:37:32;22.90;99.90
20376;DHT22;10347;51.828;6.466;2023-10-13T12:40:17;22.90;99.90
20376;DHT22;10347;51.828;6.466;2023-10-13T12:43:02;23.00;99.90
20376;DHT22;10347;51.828;6.466;2023-10-13T12:45:47;23.00;99.90
20376;DHT22;10347;51.828;6.466;2023-10-13T12:48:32;23.00;99.90
20376;DHT22;10347;51.828;6.466;2023-10-13T12:51:16;23.10;99.90
20376;DHT22;10347;51.828;6.466;2023-10-13T12:53:50;23.10;99.90
20376;DHT22;10347;51.828;6.466;2023-10-13T12:56:17;23.20;99.90
20376;DHT22;10347;51.828;6.466;2023-10-13T12:58:46;23.20;99.90
20376;DHT22;10347;51.828;6.466;2023-10-13T13:01:18;23.30;99.90
20376;DHT22;10347;51.828;6.466;2023-10-13T13:03:49;23.30;99.90
20376;DHT22;10347;51.828;6.466;2023-10-13T13:06:27;23.30;99.90
20376;DHT22;10347;51.828;6.466;2023-10-13T13:08:59;23.30;99.90
20376;DHT22;10347;51.828;6.466;2023-10-13T13:11:25;23.40;99.90
20376;DHT22;10347;51.828;6.466;2023-10-13T13:13:53;23.40;99.90
20376;DHT22;10347;51.828;6.466;2023-10-13T13:16:19;23.40;99.90
20376;DHT22;10347;51.828;6.466;2023-10-13T13:18:49;23.50;99.90
20376;DHT22;10347;51.828;6.466;2023-10-13T13:21:15;23.50;99.90
20376;DHT22;10347;51.828;6.466;2023-10-13T13:23:47;23.50;99.90
20376;DHT22;10347;51.828;6.466;2023-10-13T13:26:12;23.50;99.90
20376;DHT22;10347;51.828;6.466;2023-10-13T13:28:45;23.50;99.90
20376;DHT22;10347;51.828;6.466;2023-10-13T13:31:11;23.50;99.90
20376;DHT22;10347;51.828;6.466;2023-10-13T13:33:38;23.50;99.90
20376;DHT22;10347;51.828;6.466;2023-10-13T13:36:07;23.50;99.90
20376;DHT22;10347;51.828;6.466;2023-10-13T13:38:33;23.50;99.90
20376;DHT22;10347;51.828;6.466;2023-10-13T13:41:01;23.50;99.90
20376;DHT22;10347;51.828;6.466;2023-10-13T13:43:28;23.50;99.90
20376;DHT22;10347;51.828;6.466;2023-10-13T13:46:03;23.60;99.90
20376;DHT22;10347;51.828;6.466;2023-10-13T13:48:29;23.60;99.90
20376;DHT22;10347;51.828;6.466;2023-10-13T13:50:56;23.50;99.90
20376;DHT22;10347;51.828;6.466;2023-10-13T13:53:29;23.60;99.90
20376;DHT22;10347;51.828;6.466;2023-10-13T13:56:03;23.60;99.90
20376;DHT22;10347;51.828;6.466;2023-10-13T13:58:29;23.60;99.90
20376;DHT22;10347;51.828;6.466;2023-10-13T14:01:04;23.60;99.90
20376;DHT22;10347;51.828;6.466;2023-10-13T14:03:39;23.50;99.90
20376;DHT22;10347;51.828;6.466;2023-10-13T14:06:14;23.50;99.90
20376;DHT22;10347;51.828;6.466;2023-10-13T14:08:50;23.50;99.90
20376;DHT22;10347;51.828;6.466;2023-10-13T14:11:26;23.60;99.90
20376;DHT22;10347;51.828;6.466;2023-10-13T14:14:04;23.50;99.90
20376;DHT22;10347;51.828;6.466;2023-10-13T14:16:41;23.50;99.90
20376;DHT22;10347;51.828;6.466;2023-10-13T14:19:11;23.50;99.90
20376;DHT22;10347;51.828;6.466;2023-10-13T14:21:37;23.50;99.90
20376;DHT22;10347;51.828;6.466;2023-10-13T14:24:03;23.50;99.90
20376;DHT22;10347;51.828;6.466;2023-10-13T14:26:38;23.50;99.90
20376;DHT22;10347;51.828;6.466;2023-10-13T14:29:04;23.50;99.90
20376;DHT22;10347;51.828;6.466;2023-10-13T14:31:34;23.50;99.90
20376;DHT22;10347;51.828;6.466;2023-10-13T14:34:02;23.50;99.90
20376;DHT22;10347;51.828;6.466;2023-10-13T14:36:27;23.50;99.90
20376;DHT22;10347;51.828;6.466;2023-10-13T14:39:00;23.50;99.90
20376;DHT22;10347;51.828;6.466;2023-10-13T14:41:26;23.50;99.90
20376;DHT22;10347;51.828;6.466;2023-10-13T14:43:51;23.50;99.90
20376;DHT22;10347;51.828;6.466;2023-10-13T14:46:18;23.50;99.90
20376;DHT22;10347;51.828;6.466;2023-10-13T14:48:53;23.50;99.90
20376;DHT22;10347;51.828;6.466;2023-10-13T14:51:20;23.50;99.90
20376;DHT22;10347;51.828;6.466;2023-10-13T14:53:46;23.50;99.90
20376;DHT22;10347;51.828;6.466;2023-10-13T14:56:13;23.50;99.90
20376;DHT22;10347;51.828;6.466;2023-10-13T14:58:39;23.50;99.90
20376;DHT22;10347;51.828;6.466;2023-10-13T15:01:15;23.50;99.90
20376;DHT22;10347;51.828;6.466;2023-10-13T15:03:45;23.40;99.90
20376;DHT22;10347;51.828;6.466;2023-10-13T15:06:18;23.40;99.90
20376;DHT22;10347;51.828;6.466;2023-10-13T15:08:47;23.40;99.90
20376;DHT22;10347;51.828;6.466;2023-10-13T15:11:13;23.40;99.90
20376;DHT22;10347;51.828;6.466;2023-10-13T15:13:42;23.40;99.90
20376;DHT22;10347;51.828;6.466;2023-10-13T15:16:15;23.40;99.90
20376;DHT22;10347;51.828;6.466;2023-10-13T15:18:46;23.40;99.90
20376;DHT22;10347;51.828;6.466;2023-10-13T15:21:21;23.40;99.90
20376;DHT22;10347;51.828;6.466;2023-10-13T15:23:51;23.40;99.90
20376;DHT22;10347;51.828;6.466;2023-10-13T15:26:20;23.40;99.90
20376;DHT22;10347;51.828;6.466;2023-10-13T15:28:49;23.40;99.90
20376;DHT22;10347;51.828;6.466;2023-10-13T15:31:15;23.30;99.90
20376;DHT22;10347;51.828;6.466;2023-10-13T15:34:03;23.30;99.90
20376;DHT22;10347;51.828;6.466;2023-10-13T15:36:33;23.30;99.90
20376;DHT22;10347;51.828;6.466;2023-10-13T15:38:58;23.30;99.90
20376;DHT22;10347;51.828;6.466;2023-10-13T15:41:25;23.30;99.90
20376;DHT22;10347;51.828;6.466;2023-10-13T15:43:51;23.30;99.90
20376;DHT22;10347;51.828;6.466;2023-10-13T15:46:19;23.30;99.90
20376;DHT22;10347;51.828;6.466;2023-10-13T15:48:50;23.30;99.90
20376;DHT22;10347;51.828;6.466;2023-10-13T15:51:16;23.30;99.90
20376;DHT22;10347;51.828;6.466;2023-10-13T15:53:43;23.30;99.90
20376;DHT22;10347;51.828;6.466;2023-10-13T15:56:13;23.20;99.90
20376;DHT22;10347;51.828;6.466;2023-10-13T15:58:48;23.20;99.90
20376;DHT22;10347;51.828;6.466;2023-10-13T16:01:15;23.20;99.90
20376;DHT22;10347;51.828;6.466;2023-10-13T16:03:44;23.20;99.90
20376;DHT22;10347;51.828;6.466;2023-10-13T16:06:15;23.20;99.90
20376;DHT22;10347;51.828;6.466;2023-10-13T16:08:41;23.20;99.90
20376;DHT22;10347;51.828;6.466;2023-10-13T16:11:11;23.10;99.90
20376;DHT22;10347;51.828;6.466;2023-10-13T16:13:40;23.10;99.90
20376;DHT22;10347;51.828;6.466;2023-10-13T16:16:20;23.00;99.90
20376;DHT22;10347;51.828;6.466;2023-10-13T16:18:50;23.00;99.90
20376;DHT22;10347;51.828;6.466;2023-10-13T16:21:16;22.90;99.90
20376;DHT22;10347;51.828;6.466;2023-10-13T16:23:43;22.90;99.90
20376;DHT22;10347;51.828;6.466;2023-10-13T16:26:14;22.90;99.90
20376;DHT22;10347;51.828;6.466;2023-10-13T16:28:40;22.80;99.90
20376;DHT22;10347;51.828;6.466;2023-10-13T16:31:06;22.80;99.90
20376;DHT22;10347;51.828;6.466;2023-10-13T16:33:34;22.70;99.90
20376;DHT22;10347;51.828;6.466;2023-10-13T16:36:04;22.70;99.90
20376;DHT22;10347;51.828;6.466;2023-10-13T16:38:36;22.60;99.90
20376;DHT22;10347;51.828;6.466;2023-10-13T16:41:03;22.60;99.90
20376;DHT22;10347;51.828;6.466;2023-10-13T16:43:32;22.60;99.90